F\v Gure Gogoa — EAJC — position and weather

sailwx.info

Track history (hours):
 
Tides and Currents Weather Stations Pressure Air Temp Water Temp Dewpoint Dewpoint Depression Visibility Wind Speed Wind Dir Waves Ship Positions

F\v Gure Gogoa

Last reported at 2014-Oct-22 08:19 UTC. Time now 2014-Oct-26 07:06 UTC.
Position N 43°47' W 001°46'.

Length 37 m.

Type: Fishing. MMSI: 224128930.

Date/timePositionNaut miles runAvg speedWind from/ knotsBaromVisibWave heightAir tempDewpointWater temp
2014-Oct-22 08:19N 43°47' W 001°46'43 1.4
2014-Oct-21 00:33N 44°28' W 001°32'9 9.1
2014-Oct-20 23:33N 44°37' W 001°33'8 8.1
2014-Oct-20 22:33N 44°45' W 001°31'2 2.3
2014-Oct-20 21:33N 44°48' W 001°30'4 4.2
2014-Oct-20 20:33N 44°43' W 001°29'1310.0
2014-Oct-20 19:14N 44°31' W 001°36'26 9.7
2014-Oct-20 16:31N 44°06' W 001°45'10 9.8
2014-Oct-20 15:32N 43°56' W 001°49'10 9.4
2014-Oct-20 14:31N 43°47' W 001°53'11 9.4
2014-Oct-20 13:18N 43°37' W 001°60'1210.2
2014-Oct-20 12:05N 43°26' W 002°07'510.2
2014-Oct-20 11:33N 43°21' W 002°10'  
2014-Oct-16 09:31N 43°45' W 002°01'1111.0
2014-Oct-16 08:31N 43°56' W 001°57'1111.0
2014-Oct-16 07:33N 44°06' W 001°53'2211.0
2014-Oct-16 05:33N 44°28' W 001°45'1010.5
2014-Oct-16 04:33N 44°38' W 001°41'1010.2
2014-Oct-16 03:33N 44°47' W 001°38'7 0.7
2014-Oct-15 17:26N 44°54' W 001°37'16 8.0
2014-Oct-15 15:25N 44°38' W 001°41'37 1.4
2014-Oct-14 13:05N 44°03' W 001°54'23 8.3
2014-Oct-14 10:22N 44°25' W 001°46'7 8.7
2014-Oct-14 09:33N 44°32' W 001°43'10 8.6
2014-Oct-14 08:25N 44°41' W 001°39'7 8.7
2014-Oct-14 07:33N 44°49' W 001°37'7 7.3
2014-Oct-14 06:33N 44°55' W 001°33'2 1.6
2014-Oct-14 05:30N 44°56' W 001°31'1 0.7
2014-Oct-14 04:33N 44°56' W 001°30'1 0.7
2014-Oct-14 03:27N 44°55' W 001°31'2 1.8
2014-Oct-14 02:33N 44°56' W 001°32'3 3.4
2014-Oct-14 01:33N 44°53' W 001°31'4 3.8
2014-Oct-14 00:32N 44°49' W 001°31'3 3.2
2014-Oct-13 23:31N 44°52' W 001°30'4 3.8
2014-Oct-13 22:28N 44°56' W 001°31'1 0.7
2014-Oct-13 21:27N 44°55' W 001°31'9 9.0
2014-Oct-13 20:26N 44°46' W 001°34'7 7.2
2014-Oct-13 19:32N 44°40' W 001°32'10 9.7
2014-Oct-13 18:33N 44°30' W 001°30'  
Track history (hours):
 
Tides and Currents Weather Stations Pressure Air Temp Water Temp Dewpoint Dewpoint Depression Visibility Wind Speed Wind Dir Waves Ship Positions

F\v Gure Gogoa

Last reported at 2014-Oct-22 08:19 UTC. Time now 2014-Oct-26 07:06 UTC.
Position N 43°47' W 001°46'.

Length 37 m.

Type: Fishing. MMSI: 224128930.

Date/timePositionNaut miles runAvg speedWind from/ knotsBaromVisibWave heightAir tempDewpointWater temp
2014-Oct-22 08:19N 43°47' W 001°46'43 1.4
2014-Oct-21 00:33N 44°28' W 001°32'9 9.1
2014-Oct-20 23:33N 44°37' W 001°33'8 8.1
2014-Oct-20 22:33N 44°45' W 001°31'2 2.3
2014-Oct-20 21:33N 44°48' W 001°30'4 4.2
2014-Oct-20 20:33N 44°43' W 001°29'1310.0
2014-Oct-20 19:14N 44°31' W 001°36'26 9.7
2014-Oct-20 16:31N 44°06' W 001°45'10 9.8
2014-Oct-20 15:32N 43°56' W 001°49'10 9.4
2014-Oct-20 14:31N 43°47' W 001°53'11 9.4
2014-Oct-20 13:18N 43°37' W 001°60'1210.2
2014-Oct-20 12:05N 43°26' W 002°07'510.2
2014-Oct-20 11:33N 43°21' W 002°10'  
2014-Oct-16 09:31N 43°45' W 002°01'1111.0
2014-Oct-16 08:31N 43°56' W 001°57'1111.0
2014-Oct-16 07:33N 44°06' W 001°53'2211.0
2014-Oct-16 05:33N 44°28' W 001°45'1010.5
2014-Oct-16 04:33N 44°38' W 001°41'1010.2
2014-Oct-16 03:33N 44°47' W 001°38'7 0.7
2014-Oct-15 17:26N 44°54' W 001°37'16 8.0
2014-Oct-15 15:25N 44°38' W 001°41'37 1.4
2014-Oct-14 13:05N 44°03' W 001°54'23 8.3
2014-Oct-14 10:22N 44°25' W 001°46'7 8.7
2014-Oct-14 09:33N 44°32' W 001°43'10 8.6
2014-Oct-14 08:25N 44°41' W 001°39'7 8.7
2014-Oct-14 07:33N 44°49' W 001°37'7 7.3
2014-Oct-14 06:33N 44°55' W 001°33'2 1.6
2014-Oct-14 05:30N 44°56' W 001°31'1 0.7
2014-Oct-14 04:33N 44°56' W 001°30'1 0.7
2014-Oct-14 03:27N 44°55' W 001°31'2 1.8
2014-Oct-14 02:33N 44°56' W 001°32'3 3.4
2014-Oct-14 01:33N 44°53' W 001°31'4 3.8
2014-Oct-14 00:32N 44°49' W 001°31'3 3.2
2014-Oct-13 23:31N 44°52' W 001°30'4 3.8
2014-Oct-13 22:28N 44°56' W 001°31'1 0.7
2014-Oct-13 21:27N 44°55' W 001°31'9 9.0
2014-Oct-13 20:26N 44°46' W 001°34'7 7.2
2014-Oct-13 19:32N 44°40' W 001°32'10 9.7
2014-Oct-13 18:33N 44°30' W 001°30'  

Dump ship's entire track history